Home > Products > Valid Products > TAF

000
FTUS41 KALY 202300
TAFALB
TAF
KALB 202325Z 2100/2124 18006KT P6SM SCT250
     FM211200 18006KT P6SM SCT150 SCT250
     FM211800 18010KT P6SM BKN120 BKN200=



000
FTUS41 KALY 202300
TAFGFL
TAF
KGFL 202325Z 2100/2124 19005KT P6SM SCT250
     FM211200 17006KT P6SM SCT150 BKN250
     FM211800 19009KT P6SM BKN120 BKN200=



000
FTUS41 KALY 202300
TAFPOU
TAF
KPOU 202325Z 2100/2124 20005KT P6SM SCT250
     FM210300 00000KT P6SM FEW250
     FM211300 18004KT P6SM SCT250
     FM211800 19006KT P6SM SCT150 SCT250=



000
FTUS41 KALY 201700
TAFALB
TAF
KALB 201735Z 2018/2118 18008KT P6SM SCT250
     FM210100 17003KT P6SM BKN200
     FM211500 17006KT P6SM BKN200=



000
FTUS41 KALY 201700
TAFPOU
TAF
KPOU 201735Z 2018/2118 14005KT P6SM SCT250
     FM210100 VRB03KT P6SM BKN200
     FM211500 18005KT P6SM SCT200=



000
FTUS41 KALY 201700
TAFGFL
TAF
KGFL 201735Z 2018/2118 VRB06KT P6SM SCT250
     FM210000 19002KT P6SM BKN200
     FM211500 17006KT P6SM SCT200=



000
FTUS41 KALY 201100
TAFPOU
TAF
KPOU 201133Z 2012/2112 VRB03KT P6SM BKN250
     FM201500 14005KT P6SM SCT250
     FM210100 VRB03KT P6SM BKN200=



000
FTUS41 KALY 201100
TAFGFL
TAF
KGFL 201133Z 2012/2112 VRB03KT P6SM SKC
     FM201500 17006KT P6SM SCT250
     FM210000 19003KT P6SM BKN200=



000
FTUS41 KALY 201100
TAFALB
TAF
KALB 201133Z 2012/2112 VRB03KT P6SM FEW250
     FM201700 17009KT P6SM SCT250
     FM202300 17007KT P6SM BKN200=



000
FTUS41 KALY 200500
TAFPOU
TAF
KPOU 200520Z 2006/2106 VRB03KT P6SM BKN250
     FM201500 14005KT P6SM SCT250
     FM210100 VRB03KT P6SM BKN200=



000
FTUS41 KALY 200500
TAFGFL
TAF
KGFL 200520Z 2006/2106 VRB03KT P6SM FEW250
     FM201500 17006KT P6SM SCT250
     FM210000 19003KT P6SM BKN200=



000
FTUS41 KALY 200500
TAFALB
TAF
KALB 200520Z 2006/2106 01005KT P6SM BKN250
     FM200900 VRB03KT P6SM SCT250
     FM201500 17007KT P6SM SCT250=



000
FTUS41 KALY 192300
TAFALB
TAF
KALB 192330Z 2000/2024 33007KT P6SM BKN270
     FM200200 00000KT P6SM BKN250
     FM201500 17007KT P6SM SCT250=



000
FTUS41 KALY 192300
TAFGFL
TAF
KGFL 192330Z 2000/2024 34006KT P6SM SKC
     FM200200 00000KT P6SM FEW250
     FM201500 17006KT P6SM SCT250=



000
FTUS41 KALY 192300
TAFPOU
TAF
KPOU 192330Z 2000/2024 01007KT P6SM BKN250
     FM200200 00000KT P6SM BKN250
     FM201500 14005KT P6SM SCT250=



000
FTUS41 KALY 191700
TAFGFL
TAF
KGFL 191720Z 1918/2018 35010G20KT P6SM SCT050
     FM192100 35010G20KT P6SM SKC
     FM200000 VRB03KT P6SM SKC
     FM201500 VRB03KT P6SM FEW250=



000
FTUS41 KALY 191700
TAFALB
TAF
KALB 191720Z 1918/2018 35010G20KT P6SM SCT050
     FM192000 35010G20KT P6SM SKC
     FM200000 VRB03KT P6SM SKC
     FM201500 VRB03KT P6SM FEW250=



000
FTUS41 KALY 191700
TAFPOU
TAF
KPOU 191720Z 1918/2018 35010KT P6SM SKC
     FM200000 VRB03KT P6SM SKC=



000
FTUS41 KALY 191100
TAFALB
TAF
KALB 191132Z 1912/2012 30012G23KT P6SM FEW040 FEW250
     FM200000 35006KT P6SM SKC=



000
FTUS41 KALY 191100
TAFPOU
TAF
KPOU 191132Z 1912/2012 00000KT P6SM SKC
     FM191500 33010G18KT P6SM SKC
     FM200000 VRB03KT P6SM SKC=



000
FTUS41 KALY 191100
TAFGFL
TAF
KGFL 191132Z 1912/2012 VRB03KT P6SM FEW040
     FM191500 35010G18KT P6SM FEW060
     FM200000 VRB03KT P6SM SKC=



000
FTUS41 KALY 190800 AAB
TAFALB
TAF AMD
KALB 190834Z 1909/2006 00000KT P6SM FEW027 BKN040
     FM191100 31009KT P6SM SCT025 SCT060
     FM191500 32012G22KT P6SM FEW060
     FM200000 35006KT P6SM SKC=



000
FTUS41 KALY 190700 AAA
TAFALB
TAF AMD
KALB 190758Z 1908/2006 00000KT P6SM BKN025 OVC045
     FM191100 31009KT P6SM SCT025 SCT060
     FM191500 32012G22KT P6SM FEW060
     FM200000 35006KT P6SM SKC=



000
FTUS41 KALY 190500
TAFPOU
TAF
KPOU 190520Z 1906/2006 12004KT P6SM SKC
     FM190900 VRB03KT P6SM SKC
     FM191500 33010G18KT P6SM SKC
     FM200000 VRB03KT P6SM SKC=



000
FTUS41 KALY 190500
TAFGFL
TAF
KGFL 190520Z 1906/2006 00000KT P6SM OVC090
     FM191100 31006KT P6SM SCT025 SCT060
     FM191500 35010G18KT P6SM FEW060
     FM200000 VRB03KT P6SM SKC=



000
FTUS41 KALY 190500
TAFALB
TAF
KALB 190520Z 1906/2006 00000KT P6SM BKN120 BKN250
     FM191100 31009KT P6SM SCT025 SCT060
     FM191500 32012G22KT P6SM FEW060
     FM200000 35006KT P6SM SKC=



000
FTUS41 KALY 182300
TAFALB
TAF
KALB 182325Z 1900/1924 18008KT P6SM SCT150 BKN200
     FM190400 18007KT P6SM SCT025 BKN060 OVC100
     FM191100 31009KT P6SM SCT025 SCT060
     FM191500 32012G22KT P6SM FEW060=



000
FTUS41 KALY 182300
TAFGFL
TAF
KGFL 182325Z 1900/1924 22003KT P6SM SCT050 BKN100 BKN200
     FM190400 VRB03KT P6SM VCSH SCT025 BKN060 OVC100
     FM191100 31006KT P6SM SCT025 SCT060
     FM191500 35010G18KT P6SM FEW060=



000
FTUS41 KALY 182300
TAFPOU
TAF
KPOU 182325Z 1900/1924 VRB04KT P6SM OVC150
     FM190900 VRB03KT P6SM SKC
     FM191500 33010G18KT P6SM SKC=



000
FTUS41 KALY 181700
TAFPOU
TAF
KPOU 181720Z 1818/1918 12005KT P6SM BKN250
     FM190000 VRB03KT P6SM SCT025 OVC100
     FM191500 33008KT P6SM SKC=



000
FTUS41 KALY 181700
TAFGFL
TAF
KGFL 181720Z 1818/1918 19008KT P6SM BKN250
     FM190000 VRB03KT P6SM OVC100
     FM190600 00000KT P6SM VCSH SCT030 OVC060
     FM191200 32006KT P6SM SCT060
     FM191500 33010KT P6SM SKC=



000
FTUS41 KALY 181700
TAFALB
TAF
KALB 181720Z 1818/1918 18010G18KT P6SM BKN250
     FM190000 19006KT P6SM SCT030 OVC100
     FM191200 32010KT P6SM SCT060
     FM191500 33012G22KT P6SM SKC=



000
FTUS41 KALY 181600 AAA
TAFALB
TAF AMD
KALB 181610Z 1816/1912 18008G16KT P6SM BKN250
     FM181800 18010KT P6SM BKN150 BKN200
     FM190000 17006KT P6SM OVC120=



000
FTUS41 KALY 181100 RRA
TAFPOU
TAF
KPOU 181148Z 1812/1912 00000KT P6SM SCT025 OVC250
      TEMPO 1812/1815 OVC025
     FM181500 18005KT P6SM SCT025 SCT150 BKN200
     FM182100 19006KT P6SM BKN150 BKN200
     FM190000 VRB03KT P6SM OVC120=



000
FTUS41 KALY 181100 RRA
TAFGFL
TAF
KGFL 181148Z 1812/1912 00000KT P6SM BKN250
     FM181400 16007KT P6SM BKN200
     FM181800 18010KT P6SM BKN150 BKN200
     FM190000 VRB03KT P6SM OVC120=



000
FTUS41 KALY 181100 RRA
TAFALB
TAF
KALB 181148Z 1812/1912 00000KT P6SM BKN250
     FM181400 16007KT P6SM BKN200
     FM181800 18010KT P6SM BKN150 BKN200
     FM190000 17006KT P6SM OVC120=



000
FTUS41 KALY 180500
TAFALB
TAF
KALB 180520Z 1806/1906 15008KT P6SM SKC
     FM181400 16007KT P6SM BKN200
     FM181800 18010KT P6SM BKN150 BKN200
     FM190000 17006KT P6SM OVC120=



000
FTUS41 KALY 180500
TAFGFL
TAF
KGFL 180520Z 1806/1906 00000KT P6SM SKC
     FM181400 16007KT P6SM BKN200
     FM181800 18010KT P6SM BKN150 BKN200
     FM190000 VRB03KT P6SM OVC120=



000
FTUS41 KALY 180500
TAFPOU
TAF
KPOU 180520Z 1806/1906 00000KT P6SM SKC
     FM181500 18005KT P6SM SCT150 BKN200
     FM182100 19006KT P6SM BKN150 BKN200
     FM190000 VRB03KT P6SM OVC120=



    US Dept of Commerce
    National Oceanic and Atmospheric Administration
    National Weather Service
    1325 East West Highway
    Silver Spring, MD 20910
    Page Author: NWS Internet Services Team
Disclaimer
Information Quality
Credits
Glossary
Privacy Policy
Freedom of Information Act (FOIA)
About Us
Career Opportunities